Time;durP1;ratioP1;P1;durP2;ratioP2;P2;SDS_P1;SDS_P2;PMS_P1;PMS_P2;Temp;Humidity;BMP_temperature;BMP_pressure;BME280_temperature;BME280_humidity;BME280_pressure;Samples;Min_cycle;Max_cycle;Signal;HPM_P1;HPM_P2
2022/01/17 05:01:22;;;;;;;32.93;17.17;;;2.60;99.90;;;;;;5558480;23;20499;-77
2022/01/17 05:03:48;;;;;;;33.50;18.10;;;2.60;99.90;;;;;;4975313;28;20487;-77
2022/01/17 05:06:16;;;;;;;41.97;19.37;;;2.70;99.90;;;;;;4975507;28;20507;-77
2022/01/17 05:08:43;;;;;;;32.80;18.40;;;2.70;99.90;;;;;;4975166;28;21146;-77
2022/01/17 05:11:10;;;;;;;41.13;19.10;;;2.70;99.90;;;;;;4975042;28;20540;-77
2022/01/17 05:13:44;;;;;;;31.90;17.07;;;2.60;99.90;;;;;;4997892;23;20607;-76
2022/01/17 05:16:14;;;;;;;28.53;17.60;;;2.60;99.90;;;;;;4974655;28;20912;-76
2022/01/17 05:21:27;;;;;;;35.93;17.60;;;2.60;99.90;;;;;;4975123;28;20587;-76
2022/01/17 05:23:53;;;;;;;30.27;16.17;;;2.60;99.90;;;;;;4975120;28;20498;-76
2022/01/17 05:26:20;;;;;;;30.60;15.83;;;2.60;99.90;;;;;;4975136;28;20474;-76
2022/01/17 05:28:47;;;;;;;32.40;15.83;;;2.50;99.90;;;;;;4974973;28;20539;-76
2022/01/17 05:31:15;;;;;;;27.37;16.13;;;2.60;99.90;;;;;;4974744;28;20462;-76
2022/01/17 05:33:44;;;;;;;34.87;17.67;;;2.60;99.90;;;;;;4974400;28;20476;-76
2022/01/17 05:36:11;;;;;;;28.20;15.47;;;2.60;99.90;;;;;;4974759;28;20952;-76
2022/01/17 05:38:37;;;;;;;29.03;16.20;;;2.60;99.90;;;;;;4974541;28;20555;-76
2022/01/17 05:41:04;;;;;;;31.63;16.50;;;2.70;99.90;;;;;;4974402;28;20886;-76
2022/01/17 05:43:31;;;;;;;24.47;15.20;;;2.60;99.90;;;;;;4974979;28;20497;-76
2022/01/17 05:45:58;;;;;;;30.10;15.77;;;2.60;99.90;;;;;;4974411;28;20583;-76
2022/01/17 05:48:25;;;;;;;31.70;15.73;;;2.60;99.90;;;;;;4974491;28;20551;-76
2022/01/17 05:50:53;;;;;;;28.40;15.63;;;2.60;99.90;;;;;;4974308;28;20622;-76
2022/01/17 05:53:20;;;;;;;30.10;15.40;;;2.60;99.90;;;;;;4974328;28;20476;-76
2022/01/17 05:55:47;;;;;;;32.00;16.40;;;2.70;99.90;;;;;;4973955;28;21127;-76
2022/01/17 05:58:14;;;;;;;33.50;17.63;;;2.70;99.90;;;;;;4974223;28;20539;-76
2022/01/17 06:00:41;;;;;;;30.73;15.53;;;2.70;99.90;;;;;;4973899;28;20455;-76
2022/01/17 06:03:08;;;;;;;28.63;16.70;;;2.70;99.90;;;;;;4974838;28;20562;-66
2022/01/17 06:05:35;;;;;;;29.30;16.43;;;2.70;99.90;;;;;;4973879;28;20535;-66
2022/01/17 06:08:03;;;;;;;32.40;16.93;;;2.70;99.90;;;;;;4973781;28;20955;-66
2022/01/17 06:10:30;;;;;;;41.00;18.37;;;2.70;99.90;;;;;;4972735;28;20454;-66
2022/01/17 06:12:58;;;;;;;36.23;19.33;;;2.70;99.90;;;;;;4973905;28;21014;-66
2022/01/17 06:15:25;;;;;;;28.73;15.80;;;2.70;99.90;;;;;;4974152;28;20525;-76
2022/01/17 06:17:51;;;;;;;28.20;15.83;;;2.70;99.90;;;;;;4974260;28;20543;-75
2022/01/17 06:20:18;;;;;;;28.80;16.77;;;2.70;99.90;;;;;;4974143;28;20460;-76
2022/01/17 06:22:45;;;;;;;29.57;17.67;;;2.70;99.90;;;;;;4974322;28;20578;-77
2022/01/17 06:25:14;;;;;;;32.43;16.73;;;2.70;99.90;;;;;;4974561;28;20552;-77
2022/01/17 06:27:41;;;;;;;32.77;17.20;;;2.70;99.90;;;;;;4973532;28;20552;-75
2022/01/17 06:30:08;;;;;;;26.67;16.10;;;2.70;99.90;;;;;;4973982;28;20845;-76
2022/01/17 06:32:35;;;;;;;29.73;15.77;;;2.70;99.90;;;;;;4974303;28;20456;-76
2022/01/17 06:35:04;;;;;;;28.90;16.27;;;2.70;99.90;;;;;;4973591;28;20499;-76
2022/01/17 06:37:31;;;;;;;29.47;16.60;;;2.70;99.90;;;;;;4973811;28;20522;-76
2022/01/17 06:39:58;;;;;;;25.37;15.10;;;2.70;99.90;;;;;;4973405;28;20487;-76
2022/01/17 06:42:26;;;;;;;29.53;17.40;;;2.80;99.90;;;;;;4973826;28;20538;-76
2022/01/17 06:44:53;;;;;;;40.00;20.10;;;2.80;99.90;;;;;;4973438;28;20938;-76
2022/01/17 06:47:21;;;;;;;29.63;15.53;;;2.90;99.90;;;;;;4973852;28;20546;-77
2022/01/17 06:49:48;;;;;;;34.33;17.10;;;2.90;99.90;;;;;;4973618;28;20456;-77
2022/01/17 06:52:15;;;;;;;34.03;15.23;;;3.00;99.90;;;;;;4973675;28;20551;-75
2022/01/17 06:54:42;;;;;;;33.87;18.23;;;2.90;99.90;;;;;;4973017;28;20527;-76
2022/01/17 06:57:09;;;;;;;28.17;16.60;;;2.90;99.90;;;;;;4973681;28;20984;-75
2022/01/17 06:59:37;;;;;;;30.00;16.43;;;3.00;99.90;;;;;;4973427;28;20546;-76
2022/01/17 07:02:04;;;;;;;25.90;15.60;;;3.00;99.90;;;;;;4973951;28;20492;-76
2022/01/17 07:04:31;;;;;;;27.73;14.93;;;3.00;99.90;;;;;;4973516;28;20551;-77
2022/01/17 07:06:58;;;;;;;26.60;15.73;;;3.00;99.90;;;;;;4973337;28;20495;-77
2022/01/17 07:09:25;;;;;;;26.30;15.60;;;3.00;99.90;;;;;;4973375;28;20495;-76
2022/01/17 07:11:52;;;;;;;25.07;15.23;;;3.00;99.90;;;;;;4973297;28;20491;-77
2022/01/17 07:14:19;;;;;;;26.97;14.60;;;2.90;99.90;;;;;;4973125;28;20479;-77
2022/01/17 07:16:47;;;;;;;26.33;14.37;;;2.90;99.90;;;;;;4973475;28;20458;-78
2022/01/17 07:19:14;;;;;;;28.33;15.03;;;2.90;99.90;;;;;;4973299;28;20534;-78
2022/01/17 07:21:41;;;;;;;26.33;15.03;;;2.90;99.90;;;;;;4973496;28;20456;-77
2022/01/17 07:24:08;;;;;;;28.60;15.60;;;2.90;99.90;;;;;;4972836;28;20555;-78
2022/01/17 07:26:35;;;;;;;23.30;14.07;;;2.80;99.90;;;;;;4972999;28;20894;-77
2022/01/17 07:29:02;;;;;;;30.87;16.87;;;2.90;99.90;;;;;;4972970;28;20538;-77
2022/01/17 07:31:29;;;;;;;30.40;15.23;;;2.90;99.90;;;;;;4972930;28;20992;-77
2022/01/17 07:33:58;;;;;;;23.70;13.77;;;3.00;99.90;;;;;;4972922;28;20571;-77
2022/01/17 07:36:25;;;;;;;26.13;14.03;;;2.90;99.90;;;;;;4972687;28;20495;-77
2022/01/17 07:38:52;;;;;;;24.33;15.53;;;2.90;99.90;;;;;;4972521;28;20819;-77
2022/01/17 07:41:19;;;;;;;29.80;16.97;;;3.00;99.90;;;;;;4973006;28;20531;-77
2022/01/17 07:43:47;;;;;;;27.20;16.80;;;3.00;99.90;;;;;;4972727;28;21000;-77
2022/01/17 07:46:23;;;;;;;29.07;16.40;;;3.00;99.90;;;;;;4972995;28;20722;-77
2022/01/17 07:49:03;;;;;;;26.50;15.73;;;3.10;99.90;;;;;;4972546;28;20462;-79
2022/01/17 07:51:32;;;;;;;36.73;17.60;;;3.00;99.90;;;;;;4972648;28;20507;-77
2022/01/17 07:53:59;;;;;;;30.00;15.70;;;3.00;99.90;;;;;;4972942;28;20471;-78
2022/01/17 07:56:26;;;;;;;31.10;16.40;;;3.00;99.90;;;;;;4972696;28;20578;-76
2022/01/17 07:58:53;;;;;;;34.63;17.30;;;2.90;99.90;;;;;;4972437;28;20538;-78
2022/01/17 08:01:20;;;;;;;24.03;15.00;;;3.00;99.90;;;;;;4972520;28;20456;-77
2022/01/17 08:03:47;;;;;;;25.73;15.90;;;2.90;99.90;;;;;;4972719;28;20482;-77
2022/01/17 08:06:14;;;;;;;32.13;18.00;;;2.90;99.90;;;;;;4973000;28;20456;-77
2022/01/17 08:08:42;;;;;;;28.20;16.53;;;2.80;99.90;;;;;;4972568;28;20881;-77
2022/01/17 08:11:09;;;;;;;26.37;15.40;;;2.90;99.90;;;;;;4972323;28;20952;-77
2022/01/17 08:13:36;;;;;;;30.33;17.10;;;2.90;99.90;;;;;;4972323;28;20522;-77
2022/01/17 08:16:03;;;;;;;31.10;15.93;;;2.90;99.90;;;;;;4972224;28;20496;-77
2022/01/17 08:18:31;;;;;;;27.53;15.70;;;3.00;99.90;;;;;;4972714;28;20546;-77
2022/01/17 08:20:59;;;;;;;29.97;16.23;;;3.00;99.90;;;;;;4972660;28;20463;-78
2022/01/17 08:23:26;;;;;;;25.90;15.67;;;3.00;99.90;;;;;;4972715;28;20478;-77
2022/01/17 08:25:54;;;;;;;31.00;16.87;;;3.10;99.90;;;;;;4972845;28;20538;-77
2022/01/17 08:28:21;;;;;;;26.10;16.00;;;3.10;99.90;;;;;;4972300;28;21023;-77
2022/01/17 08:30:48;;;;;;;30.30;15.70;;;3.10;99.90;;;;;;4971967;28;20534;-78
2022/01/17 08:33:15;;;;;;;30.43;16.77;;;3.10;99.90;;;;;;4973181;28;20558;-77
2022/01/17 08:35:42;;;;;;;29.20;15.70;;;3.10;99.90;;;;;;4975898;28;20531;-77
2022/01/17 08:38:09;;;;;;;30.60;15.77;;;3.10;99.90;;;;;;4975872;28;20467;-77
2022/01/17 08:40:36;;;;;;;26.47;15.43;;;3.10;99.90;;;;;;4975517;28;20542;-77
2022/01/17 08:43:04;;;;;;;27.47;15.13;;;3.10;99.90;;;;;;4975498;28;20543;-78
2022/01/17 08:45:31;;;;;;;29.40;16.60;;;3.10;99.90;;;;;;4975997;28;20570;-77
2022/01/17 08:47:58;;;;;;;27.80;16.53;;;3.20;99.90;;;;;;4975616;28;21015;-77
2022/01/17 08:50:25;;;;;;;25.70;16.20;;;3.20;99.90;;;;;;4975297;28;20907;-78
2022/01/17 08:52:52;;;;;;;31.43;18.50;;;3.10;99.90;;;;;;4975454;28;20480;-77
2022/01/17 08:55:21;;;;;;;34.77;20.87;;;3.10;99.90;;;;;;4975413;28;20495;-78
2022/01/17 08:57:48;;;;;;;41.80;29.73;;;3.00;99.90;;;;;;4975256;28;20464;-77
2022/01/17 09:00:18;;;;;;;28.23;17.20;;;3.10;99.90;;;;;;4975461;28;20479;-77
2022/01/17 09:02:45;;;;;;;29.53;17.10;;;3.10;99.90;;;;;;4975542;28;20452;-78
2022/01/17 09:05:12;;;;;;;33.63;15.97;;;3.10;99.90;;;;;;4975355;28;20926;-77
2022/01/17 09:07:39;;;;;;;28.40;16.30;;;3.20;99.90;;;;;;4975575;28;20482;-78
2022/01/17 09:10:07;;;;;;;25.27;14.87;;;3.20;99.90;;;;;;4974962;28;20543;-77
2022/01/17 09:12:34;;;;;;;28.37;17.47;;;3.10;99.90;;;;;;4975193;28;20530;-77
2022/01/17 09:15:01;;;;;;;26.67;15.30;;;3.10;99.90;;;;;;4975051;28;20571;-77
2022/01/17 09:17:30;;;;;;;28.87;15.53;;;3.10;99.90;;;;;;4975020;28;20458;-76
2022/01/17 09:19:56;;;;;;;33.30;15.70;;;3.20;99.90;;;;;;4975333;28;20534;-76
2022/01/17 09:22:23;;;;;;;25.77;14.57;;;3.10;99.90;;;;;;4975493;28;20539;-76
2022/01/17 09:24:51;;;;;;;26.73;15.37;;;3.10;99.90;;;;;;4975078;28;20935;-76
2022/01/17 09:27:19;;;;;;;25.50;14.13;;;3.20;99.90;;;;;;4975425;28;20471;-77
2022/01/17 09:29:46;;;;;;;24.50;13.53;;;3.20;99.90;;;;;;4974945;28;20531;-78
2022/01/17 09:32:14;;;;;;;29.13;15.40;;;3.20;99.90;;;;;;4975376;28;20506;-77
2022/01/17 09:34:43;;;;;;;29.83;15.20;;;3.20;99.90;;;;;;4975021;28;20512;-78
2022/01/17 09:37:10;;;;;;;25.90;14.20;;;3.30;99.90;;;;;;4974809;28;20504;-77
2022/01/17 09:39:37;;;;;;;29.03;14.67;;;3.30;99.90;;;;;;4975128;28;20550;-76
2022/01/17 09:42:05;;;;;;;23.87;14.30;;;3.30;99.90;;;;;;4974945;28;20498;-76
2022/01/17 09:44:32;;;;;;;22.63;14.10;;;3.30;99.90;;;;;;4974031;28;20548;-77
2022/01/17 09:46:59;;;;;;;25.00;14.37;;;3.30;99.90;;;;;;4974510;28;20539;-78
2022/01/17 09:49:34;;;;;;;30.33;15.87;;;3.30;99.90;;;;;;4974755;28;20491;-77
2022/01/17 09:52:25;;;;;;;27.50;14.27;;;3.40;99.90;;;;;;4974558;28;20466;-78
2022/01/17 09:54:53;;;;;;;21.87;13.60;;;3.40;99.90;;;;;;4974869;28;20480;-78
2022/01/17 09:57:22;;;;;;;29.97;14.27;;;3.50;99.90;;;;;;4974694;28;20527;-78
2022/01/17 09:59:49;;;;;;;30.57;15.87;;;3.40;99.90;;;;;;4974744;28;20543;-78
2022/01/17 10:02:17;;;;;;;24.27;14.60;;;3.40;99.90;;;;;;4974398;28;20502;-78
2022/01/17 10:04:44;;;;;;;25.40;14.13;;;3.40;99.90;;;;;;4973936;28;20499;-78
2022/01/17 10:07:12;;;;;;;23.03;13.53;;;3.40;99.90;;;;;;4973462;28;20530;-78
2022/01/17 10:09:41;;;;;;;25.90;13.07;;;3.50;99.90;;;;;;4973324;28;20547;-78
2022/01/17 10:12:11;;;;;;;23.57;14.83;;;3.50;99.90;;;;;;4973615;28;20522;-78
2022/01/17 10:14:39;;;;;;;26.63;14.03;;;3.50;99.90;;;;;;4973345;28;20486;-77
2022/01/17 10:17:08;;;;;;;24.00;13.53;;;3.50;99.90;;;;;;4972477;28;20865;-78
2022/01/17 10:19:36;;;;;;;22.67;13.70;;;3.60;99.90;;;;;;4972455;28;20538;-77
2022/01/17 10:22:09;;;;;;;23.23;13.50;;;3.60;99.90;;;;;;4973293;28;20510;-77
2022/01/17 10:24:47;;;;;;;23.10;14.17;;;3.60;99.90;;;;;;4973026;28;20999;-78
2022/01/17 10:27:45;;;;;;;23.90;11.90;;;3.60;99.90;;;;;;4973209;28;20987;-78
2022/01/17 10:30:33;;;;;;;26.53;16.20;;;3.70;99.90;;;;;;4973593;28;20460;-78
2022/01/17 10:35:53;;;;;;;19.10;12.53;;;3.70;99.90;;;;;;4973846;28;20985;-78
2022/01/17 10:38:22;;;;;;;21.40;12.10;;;3.80;99.90;;;;;;4974162;28;20458;-78
2022/01/17 10:40:56;;;;;;;21.97;12.57;;;3.80;99.90;;;;;;4968361;28;20547;-78
2022/01/17 10:43:26;;;;;;;21.03;11.77;;;3.80;99.90;;;;;;4958960;28;20479;-78
2022/01/17 10:45:55;;;;;;;18.83;11.87;;;3.80;99.90;;;;;;4954407;29;20449;-78
2022/01/17 10:48:28;;;;;;;19.53;12.00;;;3.90;99.90;;;;;;4960461;28;20531;-77
2022/01/17 10:50:55;;;;;;;20.53;11.53;;;3.90;99.90;;;;;;4973611;28;20534;-76
2022/01/17 10:53:22;;;;;;;19.33;11.57;;;3.90;99.90;;;;;;4973602;28;20566;-76
2022/01/17 10:55:52;;;;;;;20.70;12.03;;;3.90;99.90;;;;;;4973157;28;20528;-76
2022/01/17 10:58:24;;;;;;;19.63;13.07;;;3.90;99.90;;;;;;4973932;28;20527;-77
2022/01/17 11:00:53;;;;;;;23.73;14.00;;;4.00;99.90;;;;;;4973171;28;20490;-76
2022/01/17 11:03:22;;;;;;;16.93;11.27;;;4.10;99.90;;;;;;4973433;28;20483;-77
2022/01/17 11:05:53;;;;;;;17.13;10.80;;;4.10;99.90;;;;;;4967442;28;20480;-77
2022/01/17 11:08:22;;;;;;;25.33;17.10;;;4.10;99.90;;;;;;4955719;28;20520;-78
2022/01/17 11:10:53;;;;;;;26.40;18.70;;;4.10;99.90;;;;;;4953894;29;20536;-77
2022/01/17 11:13:22;;;;;;;17.00;9.93;;;4.20;99.90;;;;;;4959828;28;20484;-78
2022/01/17 11:15:54;;;;;;;15.33;10.10;;;4.20;99.90;;;;;;4960439;28;20540;-78
2022/01/17 11:18:24;;;;;;;12.93;9.47;;;4.20;99.90;;;;;;4966138;28;20479;-77
2022/01/17 11:20:55;;;;;;;15.47;12.37;;;4.20;99.90;;;;;;4995684;23;22352;-74
2022/01/17 11:23:22;;;;;;;15.53;9.77;;;4.20;99.90;;;;;;4972039;28;20995;-72
2022/01/17 11:25:53;;;;;;;24.27;15.20;;;4.20;99.90;;;;;;4971108;28;20460;-72
2022/01/17 11:28:23;;;;;;;28.87;15.43;;;4.20;99.90;;;;;;4971958;28;20460;-72
2022/01/17 11:30:52;;;;;;;22.57;14.40;;;4.20;99.90;;;;;;4972671;28;21010;-72
2022/01/17 11:33:19;;;;;;;25.10;14.30;;;4.10;99.90;;;;;;4972836;28;20909;-72
2022/01/17 11:35:51;;;;;;;23.20;14.47;;;4.10;99.90;;;;;;4973088;28;20464;-72
2022/01/17 11:38:26;;;;;;;22.33;14.90;;;4.10;99.90;;;;;;4972803;28;20456;-72
2022/01/17 11:40:54;;;;;;;16.40;11.03;;;4.20;99.90;;;;;;4972762;28;20502;-72
2022/01/17 11:43:32;;;;;;;17.13;11.07;;;4.10;99.90;;;;;;4972796;28;20491;-72
2022/01/17 11:46:02;;;;;;;26.70;14.73;;;4.10;99.90;;;;;;4973102;28;20466;-72
2022/01/17 11:48:31;;;;;;;18.03;12.37;;;4.10;99.90;;;;;;4972757;28;20462;-72
2022/01/17 11:50:59;;;;;;;18.90;13.10;;;4.10;99.90;;;;;;4972809;28;20499;-72
2022/01/17 11:53:42;;;;;;;54.50;30.03;;;4.10;99.90;;;;;;4972931;28;20541;-72
2022/01/17 11:56:15;;;;;;;25.23;15.83;;;4.10;99.90;;;;;;4972439;28;20538;-73
2022/01/17 11:58:45;;;;;;;20.60;13.10;;;4.00;99.90;;;;;;4972481;28;20881;-73
2022/01/17 12:01:18;;;;;;;35.13;19.23;;;4.00;99.90;;;;;;4972054;28;20558;-73
2022/01/17 12:03:47;;;;;;;49.70;24.77;;;4.00;99.90;;;;;;4972480;28;20987;-73
2022/01/17 12:06:26;;;;;;;39.13;18.93;;;4.10;99.90;;;;;;4972414;28;21023;-73
2022/01/17 12:09:19;;;;;;;24.13;13.43;;;4.00;99.90;;;;;;4974395;28;20483;-73
2022/01/17 12:11:46;;;;;;;32.53;19.10;;;4.00;99.90;;;;;;4977844;28;20560;-72
2022/01/17 12:14:31;;;;;;;14.70;8.93;;;4.10;99.90;;;;;;4976691;28;20475;-73
2022/01/17 12:17:31;;;;;;;24.03;14.80;;;4.10;99.90;;;;;;4976381;28;21070;-73
2022/01/17 12:20:22;;;;;;;24.27;14.20;;;4.00;99.90;;;;;;4976310;28;20551;-73
2022/01/17 12:22:58;;;;;;;43.87;25.20;;;4.10;99.90;;;;;;4976161;28;20483;-73
2022/01/17 12:25:35;;;;;;;16.60;12.17;;;4.10;99.90;;;;;;4975993;28;20458;-73
2022/01/17 12:28:25;;;;;;;20.43;12.70;;;4.10;99.90;;;;;;4975208;28;20946;-73
2022/01/17 12:30:56;;;;;;;17.00;10.33;;;4.10;99.90;;;;;;4975456;28;20480;-73
2022/01/17 12:33:37;;;;;;;21.63;12.23;;;4.10;99.90;;;;;;4975958;28;21357;-73
2022/01/17 12:36:26;;;;;;;16.27;10.60;;;4.20;99.90;;;;;;4976018;28;20829;-73
2022/01/17 12:39:08;;;;;;;14.77;10.90;;;4.20;99.90;;;;;;4975454;28;20546;-73
2022/01/17 12:41:38;;;;;;;15.80;10.50;;;4.20;99.90;;;;;;4975776;28;21059;-74
2022/01/17 12:44:17;;;;;;;15.87;11.00;;;4.20;99.90;;;;;;4975536;28;20539;-74
2022/01/17 12:46:48;;;;;;;17.70;11.77;;;4.10;99.90;;;;;;4974657;28;20483;-73
2022/01/17 12:49:16;;;;;;;17.40;12.97;;;4.10;99.90;;;;;;4974664;28;20523;-73
2022/01/17 12:51:44;;;;;;;17.73;10.90;;;4.20;99.90;;;;;;4974564;28;20827;-73
2022/01/17 12:54:13;;;;;;;23.50;15.13;;;4.20;99.90;;;;;;4974648;28;20452;-73
2022/01/17 12:56:44;;;;;;;28.30;16.23;;;4.20;99.90;;;;;;4974382;28;20538;-73
2022/01/17 12:59:11;;;;;;;23.40;15.40;;;4.20;99.90;;;;;;4974340;28;20547;-73
2022/01/17 13:01:43;;;;;;;17.93;10.63;;;4.30;99.90;;;;;;4974181;28;20566;-73
2022/01/17 13:04:12;;;;;;;19.40;12.73;;;4.30;99.90;;;;;;4974750;28;20476;-73
2022/01/17 13:06:41;;;;;;;19.13;12.50;;;4.30;99.90;;;;;;4974432;28;20458;-73
2022/01/17 13:09:12;;;;;;;19.60;12.83;;;4.30;99.90;;;;;;4974283;28;20456;-73
2022/01/17 13:11:41;;;;;;;16.13;10.57;;;4.20;99.90;;;;;;4974262;28;20555;-73
2022/01/17 13:14:08;;;;;;;17.40;11.60;;;4.20;99.90;;;;;;4974109;28;20970;-73
2022/01/17 13:16:38;;;;;;;19.47;11.80;;;4.20;99.90;;;;;;4974078;28;21036;-73
2022/01/17 13:19:07;;;;;;;17.00;11.00;;;4.20;99.90;;;;;;4973913;28;20488;-73
2022/01/17 13:21:38;;;;;;;22.67;15.53;;;4.20;99.90;;;;;;4974066;28;20562;-73
2022/01/17 13:24:14;;;;;;;16.60;10.10;;;4.20;99.90;;;;;;4974536;28;20482;-72
2022/01/17 13:26:45;;;;;;;22.80;11.73;;;4.20;99.90;;;;;;4973784;28;21019;-72
2022/01/17 13:29:13;;;;;;;43.27;23.67;;;4.20;99.90;;;;;;4974926;28;20551;-73
2022/01/17 13:31:41;;;;;;;26.83;15.27;;;4.20;99.90;;;;;;4974398;28;20901;-73
2022/01/17 13:34:13;;;;;;;15.73;10.33;;;4.20;99.90;;;;;;4974798;28;20479;-73
2022/01/17 13:36:42;;;;;;;15.40;10.00;;;4.20;99.90;;;;;;4974712;28;20496;-73
2022/01/17 13:39:11;;;;;;;18.37;10.87;;;4.20;99.90;;;;;;4974313;28;20498;-73
2022/01/17 13:41:40;;;;;;;22.70;13.23;;;4.30;99.90;;;;;;4974850;28;20583;-73
2022/01/17 13:44:08;;;;;;;19.60;10.10;;;4.30;99.90;;;;;;4974819;28;20460;-73
2022/01/17 13:46:37;;;;;;;18.07;11.83;;;4.30;99.90;;;;;;4974579;28;20538;-73
2022/01/17 13:49:05;;;;;;;14.50;9.23;;;4.30;99.90;;;;;;4974353;28;20460;-73
2022/01/17 13:51:32;;;;;;;21.67;15.60;;;4.30;99.90;;;;;;4974180;28;20504;-73
2022/01/17 13:54:01;;;;;;;17.83;9.33;;;4.30;99.90;;;;;;4974492;28;20495;-73
2022/01/17 13:56:33;;;;;;;15.63;9.57;;;4.30;99.90;;;;;;4974242;28;20960;-73
2022/01/17 13:59:00;;;;;;;14.47;9.17;;;4.30;99.90;;;;;;4974380;28;20517;-73
2022/01/17 14:01:36;;;;;;;18.03;10.97;;;4.40;99.90;;;;;;4974173;28;20554;-73
2022/01/17 14:04:14;;;;;;;13.33;8.73;;;4.40;99.90;;;;;;4974187;28;20490;-73
2022/01/17 14:06:41;;;;;;;15.07;8.50;;;4.50;99.90;;;;;;4974380;28;20472;-73
2022/01/17 14:09:09;;;;;;;15.10;9.37;;;4.50;99.90;;;;;;4974078;28;21027;-72
2022/01/17 14:11:40;;;;;;;11.70;8.00;;;4.50;99.90;;;;;;4974126;28;21066;-72
2022/01/17 14:14:10;;;;;;;15.00;9.23;;;4.60;99.90;;;;;;4974202;28;20539;-72
2022/01/17 14:16:39;;;;;;;14.80;9.20;;;4.60;99.90;;;;;;4973723;28;20460;-72
2022/01/17 14:19:07;;;;;;;13.50;9.57;;;4.60;99.90;;;;;;4974002;28;20790;-73
2022/01/17 14:21:36;;;;;;;12.53;8.20;;;4.50;99.90;;;;;;4973697;28;20900;-73
2022/01/17 14:24:23;;;;;;;13.10;7.60;;;4.50;99.90;;;;;;4974352;28;20451;-73
2022/01/17 14:26:54;;;;;;;16.50;9.10;;;4.50;99.90;;;;;;4973758;28;20538;-73
2022/01/17 14:29:23;;;;;;;12.40;8.57;;;4.50;99.90;;;;;;4973528;28;21035;-73
2022/01/17 14:31:52;;;;;;;19.30;9.30;;;4.50;99.90;;;;;;4973055;28;20925;-73
2022/01/17 14:34:22;;;;;;;14.40;8.90;;;4.60;99.90;;;;;;4973856;28;20543;-73
2022/01/17 14:37:00;;;;;;;14.77;8.40;;;4.50;99.90;;;;;;4973646;28;20499;-73
2022/01/17 14:39:34;;;;;;;17.40;9.77;;;4.50;99.90;;;;;;4973230;28;20456;-73
2022/01/17 14:42:11;;;;;;;15.40;9.40;;;4.50;99.90;;;;;;4973512;28;20555;-73
2022/01/17 14:44:39;;;;;;;12.37;8.80;;;4.50;99.90;;;;;;4973483;28;20944;-73
2022/01/17 14:47:12;;;;;;;16.43;9.50;;;4.50;99.90;;;;;;4973561;28;20491;-73
2022/01/17 14:49:42;;;;;;;18.23;11.70;;;4.50;99.90;;;;;;4973186;28;20452;-73
2022/01/17 14:52:16;;;;;;;13.73;8.63;;;4.50;99.90;;;;;;4973194;28;20591;-72
2022/01/17 14:55:00;;;;;;;15.53;9.90;;;4.50;99.90;;;;;;4973570;28;20548;-72
2022/01/17 15:00:17;;;;;;;17.07;9.80;;;4.50;99.90;;;;;;4973043;28;20443;-73
2022/01/17 15:02:52;;;;;;;14.43;9.13;;;4.50;99.90;;;;;;4973543;28;20467;-73
2022/01/17 15:05:19;;;;;;;12.60;8.00;;;4.50;99.90;;;;;;4973214;28;20947;-73
2022/01/17 15:07:49;;;;;;;13.77;8.60;;;4.40;99.90;;;;;;4973334;28;20483;-72
2022/01/17 15:10:17;;;;;;;13.37;8.27;;;4.40;99.90;;;;;;4973034;28;20511;-72
2022/01/17 15:12:44;;;;;;;12.73;8.70;;;4.40;99.90;;;;;;4972871;28;20531;-72
2022/01/17 15:15:11;;;;;;;14.37;8.70;;;4.40;99.90;;;;;;4973297;28;20460;-72
2022/01/17 15:17:40;;;;;;;14.97;8.63;;;4.40;99.90;;;;;;4973171;28;20546;-73
2022/01/17 15:20:08;;;;;;;15.20;10.40;;;4.40;99.90;;;;;;4971775;28;20520;-73
2022/01/17 15:22:35;;;;;;;13.07;9.43;;;4.80;99.90;;;;;;4972611;28;20570;-72
2022/01/17 15:25:02;;;;;;;14.80;10.23;;;4.80;99.90;;;;;;4972346;28;20451;-73
2022/01/17 15:27:31;;;;;;;22.80;13.30;;;4.80;99.90;;;;;;4972652;28;20484;-72
2022/01/17 15:29:58;;;;;;;20.20;13.10;;;4.70;99.90;;;;;;4972990;28;20535;-72
2022/01/17 15:32:25;;;;;;;14.23;11.23;;;4.60;99.90;;;;;;4973153;28;20920;-73
2022/01/17 15:34:52;;;;;;;23.63;19.90;;;4.50;99.90;;;;;;4973037;28;20456;-72
2022/01/17 15:37:18;;;;;;;17.63;13.20;;;4.50;99.90;;;;;;4972932;28;21039;-72
2022/01/17 15:39:45;;;;;;;20.60;13.03;;;4.40;99.90;;;;;;4972686;28;20476;-72
2022/01/17 15:42:14;;;;;;;18.70;13.83;;;4.40;99.90;;;;;;4973597;28;20476;-71
2022/01/17 15:44:43;;;;;;;16.43;11.07;;;4.40;99.90;;;;;;4957561;28;21001;-72
2022/01/17 15:47:11;;;;;;;21.13;15.87;;;4.40;99.90;;;;;;4971443;28;20455;-72
2022/01/17 15:49:39;;;;;;;17.47;11.40;;;4.30;99.90;;;;;;4976618;28;20447;-73
2022/01/17 15:52:07;;;;;;;16.17;10.03;;;4.30;99.90;;;;;;4976739;28;20471;-72
2022/01/17 15:54:35;;;;;;;19.27;11.30;;;4.30;99.90;;;;;;4976182;28;20479;-73
2022/01/17 15:57:03;;;;;;;15.97;10.37;;;4.30;99.90;;;;;;4970109;28;20880;-72
2022/01/17 15:59:29;;;;;;;15.47;11.00;;;4.30;99.90;;;;;;4957048;28;20484;-72
2022/01/17 16:01:59;;;;;;;20.80;11.70;;;4.30;99.90;;;;;;4957206;28;21067;-72
2022/01/17 16:04:26;;;;;;;20.13;12.90;;;4.30;99.90;;;;;;4957410;28;20453;-73
2022/01/17 16:06:53;;;;;;;22.27;13.20;;;4.30;99.90;;;;;;4957284;28;20552;-71
2022/01/17 16:09:20;;;;;;;21.30;11.83;;;4.30;99.90;;;;;;4962198;28;20551;-72
2022/01/17 16:11:47;;;;;;;20.50;10.80;;;4.20;99.90;;;;;;4964494;28;20555;-72
2022/01/17 16:14:15;;;;;;;18.93;12.10;;;4.20;99.90;;;;;;4956919;28;20536;-72
2022/01/17 16:16:42;;;;;;;20.10;12.70;;;4.20;99.90;;;;;;4956890;28;20499;-73
2022/01/17 16:19:11;;;;;;;23.20;12.87;;;4.20;99.90;;;;;;4956655;28;20936;-72
2022/01/17 16:21:39;;;;;;;21.60;12.83;;;4.20;99.90;;;;;;4956425;28;20560;-73
2022/01/17 16:24:07;;;;;;;20.40;12.93;;;4.20;99.90;;;;;;4957036;28;20552;-72
2022/01/17 16:26:35;;;;;;;24.20;14.20;;;4.20;99.90;;;;;;4956878;28;20551;-72
2022/01/17 16:29:02;;;;;;;22.57;14.10;;;4.10;99.90;;;;;;4956656;28;20536;-71
2022/01/17 16:31:30;;;;;;;24.50;13.97;;;4.10;99.90;;;;;;4956629;28;20483;-71
2022/01/17 16:33:57;;;;;;;20.27;13.03;;;4.10;99.90;;;;;;4956538;28;20544;-71
2022/01/17 16:36:26;;;;;;;22.43;14.03;;;4.10;99.90;;;;;;4956601;28;20460;-71
2022/01/17 16:38:53;;;;;;;23.83;14.90;;;4.00;99.90;;;;;;4956416;28;20594;-71
2022/01/17 16:41:20;;;;;;;24.47;14.50;;;4.00;99.90;;;;;;4956580;28;20555;-71
2022/01/17 16:43:48;;;;;;;27.60;14.90;;;4.00;99.90;;;;;;4956640;28;20560;-71
2022/01/17 16:46:15;;;;;;;27.20;13.83;;;4.00;99.90;;;;;;4956489;28;20448;-71
2022/01/17 16:48:42;;;;;;;24.80;14.87;;;4.00;99.90;;;;;;4956108;28;20476;-71
2022/01/17 16:51:11;;;;;;;21.20;14.07;;;4.00;99.90;;;;;;4956075;28;20568;-71
2022/01/17 16:53:41;;;;;;;24.90;15.23;;;4.00;99.90;;;;;;4956071;28;20536;-71
2022/01/17 16:56:08;;;;;;;30.00;17.10;;;4.00;99.90;;;;;;4955267;28;20888;-72
2022/01/17 16:58:35;;;;;;;29.17;16.07;;;4.00;99.90;;;;;;4956091;28;20520;-71
2022/01/17 17:01:04;;;;;;;29.90;16.83;;;3.90;99.90;;;;;;4955952;28;20483;-72
2022/01/17 17:03:31;;;;;;;29.67;17.40;;;3.90;99.90;;;;;;4956334;28;20459;-72
2022/01/17 17:05:58;;;;;;;27.47;16.60;;;3.90;99.90;;;;;;4956346;28;20481;-73
2022/01/17 17:08:25;;;;;;;31.20;17.80;;;3.80;99.90;;;;;;4956112;28;20528;-73
2022/01/17 17:10:54;;;;;;;28.10;15.87;;;3.90;99.90;;;;;;4955875;28;20512;-73
2022/01/17 17:13:21;;;;;;;31.10;17.10;;;3.80;99.90;;;;;;4956041;28;20480;-73
2022/01/17 17:15:48;;;;;;;41.73;18.57;;;3.80;99.90;;;;;;4955974;28;20484;-73
2022/01/17 17:18:15;;;;;;;33.60;17.57;;;3.90;99.90;;;;;;4955392;28;21013;-73
2022/01/17 17:20:45;;;;;;;34.03;18.77;;;3.80;99.90;;;;;;4955651;28;20484;-73
2022/01/17 17:23:13;;;;;;;36.03;20.73;;;3.80;99.90;;;;;;4956773;28;20467;-73
2022/01/17 17:25:40;;;;;;;37.90;21.07;;;3.80;99.90;;;;;;4974830;28;20452;-73
2022/01/17 17:28:08;;;;;;;36.90;20.37;;;3.80;99.90;;;;;;4974938;28;21019;-73
2022/01/17 17:30:35;;;;;;;37.97;21.47;;;3.80;99.90;;;;;;4974589;28;20491;-73
2022/01/17 17:33:02;;;;;;;36.13;21.77;;;3.80;99.90;;;;;;4974987;28;20539;-73
2022/01/17 17:35:29;;;;;;;52.83;32.70;;;3.80;99.90;;;;;;4975025;28;20475;-73
2022/01/17 17:37:56;;;;;;;40.27;23.60;;;3.80;99.90;;;;;;4974832;28;20582;-73
2022/01/17 17:40:24;;;;;;;40.97;20.00;;;3.80;99.90;;;;;;4974555;28;20447;-73
2022/01/17 17:42:51;;;;;;;44.30;27.03;;;3.80;99.90;;;;;;4974539;28;20476;-73
2022/01/17 17:45:19;;;;;;;66.30;38.33;;;3.80;99.90;;;;;;4974979;28;20471;-73
2022/01/17 17:47:46;;;;;;;36.87;20.53;;;3.80;99.90;;;;;;4974690;28;20491;-73
2022/01/17 17:50:14;;;;;;;43.20;23.90;;;3.80;99.90;;;;;;4974627;28;20462;-73
2022/01/17 17:52:42;;;;;;;80.83;44.23;;;3.80;99.90;;;;;;4974855;28;21190;-73
2022/01/17 17:55:10;;;;;;;59.13;36.40;;;3.80;99.90;;;;;;4974665;28;20487;-73
2022/01/17 17:57:38;;;;;;;39.93;21.87;;;3.70;99.90;;;;;;4974644;28;20971;-73